sensor_id;sensor_type;location;lat;lon;timestamp;P1;durP1;ratioP1;P2;durP2;ratioP2
74328;SDS011;62745;51.060;13.786;2024-01-06T00:00:10;12.97;;;6.33;;
74328;SDS011;62745;51.060;13.786;2024-01-06T00:02:36;13.68;;;5.80;;
74328;SDS011;62745;51.060;13.786;2024-01-06T00:05:01;12.53;;;5.73;;
74328;SDS011;62745;51.060;13.786;2024-01-06T00:07:26;11.33;;;5.10;;
74328;SDS011;62745;51.060;13.786;2024-01-06T00:09:52;13.70;;;5.07;;
74328;SDS011;62745;51.060;13.786;2024-01-06T00:12:18;8.23;;;4.13;;
74328;SDS011;62745;51.060;13.786;2024-01-06T00:14:44;9.07;;;3.90;;
74328;SDS011;62745;51.060;13.786;2024-01-06T00:17:11;11.95;;;4.78;;
74328;SDS011;62745;51.060;13.786;2024-01-06T00:19:37;9.95;;;4.63;;
74328;SDS011;62745;51.060;13.786;2024-01-06T00:22:03;9.50;;;4.22;;
74328;SDS011;62745;51.060;13.786;2024-01-06T00:24:29;8.50;;;3.72;;
74328;SDS011;62745;51.060;13.786;2024-01-06T00:26:54;12.27;;;4.78;;
74328;SDS011;62745;51.060;13.786;2024-01-06T00:29:20;10.18;;;3.78;;
74328;SDS011;62745;51.060;13.786;2024-01-06T00:31:45;9.23;;;3.72;;
74328;SDS011;62745;51.060;13.786;2024-01-06T00:34:11;9.32;;;3.38;;
74328;SDS011;62745;51.060;13.786;2024-01-06T00:36:37;7.03;;;2.70;;
74328;SDS011;62745;51.060;13.786;2024-01-06T00:39:02;6.70;;;3.17;;
74328;SDS011;62745;51.060;13.786;2024-01-06T00:41:28;6.78;;;2.78;;
74328;SDS011;62745;51.060;13.786;2024-01-06T00:43:55;8.68;;;3.83;;
74328;SDS011;62745;51.060;13.786;2024-01-06T00:46:20;6.32;;;3.08;;
74328;SDS011;62745;51.060;13.786;2024-01-06T00:48:46;10.93;;;4.07;;
74328;SDS011;62745;51.060;13.786;2024-01-06T00:51:11;8.13;;;3.60;;
74328;SDS011;62745;51.060;13.786;2024-01-06T00:53:36;8.77;;;3.63;;
74328;SDS011;62745;51.060;13.786;2024-01-06T00:56:01;8.50;;;3.53;;
74328;SDS011;62745;51.060;13.786;2024-01-06T00:58:27;10.05;;;3.47;;
74328;SDS011;62745;51.060;13.786;2024-01-06T01:00:53;8.03;;;3.27;;
74328;SDS011;62745;51.060;13.786;2024-01-06T01:03:18;7.85;;;3.30;;
74328;SDS011;62745;51.060;13.786;2024-01-06T01:05:43;7.83;;;2.93;;
74328;SDS011;62745;51.060;13.786;2024-01-06T01:08:08;7.90;;;3.27;;
74328;SDS011;62745;51.060;13.786;2024-01-06T01:10:34;7.97;;;3.17;;
74328;SDS011;62745;51.060;13.786;2024-01-06T01:12:59;5.93;;;3.17;;
74328;SDS011;62745;51.060;13.786;2024-01-06T01:15:24;8.57;;;3.30;;
74328;SDS011;62745;51.060;13.786;2024-01-06T01:17:49;11.25;;;3.67;;
74328;SDS011;62745;51.060;13.786;2024-01-06T01:20:15;6.95;;;3.22;;
74328;SDS011;62745;51.060;13.786;2024-01-06T01:22:40;5.80;;;2.80;;
74328;SDS011;62745;51.060;13.786;2024-01-06T01:25:05;7.77;;;3.20;;
74328;SDS011;62745;51.060;13.786;2024-01-06T01:27:33;6.50;;;2.97;;
74328;SDS011;62745;51.060;13.786;2024-01-06T01:29:59;9.93;;;3.72;;
74328;SDS011;62745;51.060;13.786;2024-01-06T01:32:24;7.60;;;3.60;;
74328;SDS011;62745;51.060;13.786;2024-01-06T01:34:49;10.00;;;3.47;;
74328;SDS011;62745;51.060;13.786;2024-01-06T01:37:15;8.53;;;3.93;;
74328;SDS011;62745;51.060;13.786;2024-01-06T01:39:40;10.40;;;4.50;;
74328;SDS011;62745;51.060;13.786;2024-01-06T01:42:06;10.03;;;5.27;;
74328;SDS011;62745;51.060;13.786;2024-01-06T01:44:31;11.55;;;4.55;;
74328;SDS011;62745;51.060;13.786;2024-01-06T01:46:56;9.37;;;4.03;;
74328;SDS011;62745;51.060;13.786;2024-01-06T01:49:22;11.25;;;4.68;;
74328;SDS011;62745;51.060;13.786;2024-01-06T01:51:47;10.48;;;4.28;;
74328;SDS011;62745;51.060;13.786;2024-01-06T01:54:14;11.63;;;5.78;;
74328;SDS011;62745;51.060;13.786;2024-01-06T01:56:39;13.38;;;5.75;;
74328;SDS011;62745;51.060;13.786;2024-01-06T01:59:09;12.18;;;5.32;;
74328;SDS011;62745;51.060;13.786;2024-01-06T02:01:36;10.98;;;4.90;;
74328;SDS011;62745;51.060;13.786;2024-01-06T02:04:02;11.43;;;4.47;;
74328;SDS011;62745;51.060;13.786;2024-01-06T02:06:28;8.57;;;4.63;;
74328;SDS011;62745;51.060;13.786;2024-01-06T02:08:53;11.13;;;5.18;;
74328;SDS011;62745;51.060;13.786;2024-01-06T02:11:18;10.35;;;5.32;;
74328;SDS011;62745;51.060;13.786;2024-01-06T02:13:44;12.00;;;5.73;;
74328;SDS011;62745;51.060;13.786;2024-01-06T02:16:09;14.50;;;5.17;;
74328;SDS011;62745;51.060;13.786;2024-01-06T02:18:34;15.18;;;5.72;;
74328;SDS011;62745;51.060;13.786;2024-01-06T02:21:00;10.30;;;5.50;;
74328;SDS011;62745;51.060;13.786;2024-01-06T02:23:30;8.35;;;4.13;;
74328;SDS011;62745;51.060;13.786;2024-01-06T02:25:55;9.32;;;4.35;;
74328;SDS011;62745;51.060;13.786;2024-01-06T02:28:21;8.98;;;4.28;;
74328;SDS011;62745;51.060;13.786;2024-01-06T02:30:47;8.07;;;4.32;;
74328;SDS011;62745;51.060;13.786;2024-01-06T02:33:12;14.75;;;5.35;;
74328;SDS011;62745;51.060;13.786;2024-01-06T02:35:37;9.45;;;4.07;;
74328;SDS011;62745;51.060;13.786;2024-01-06T02:38:03;13.10;;;4.07;;
74328;SDS011;62745;51.060;13.786;2024-01-06T02:40:28;10.85;;;4.78;;
74328;SDS011;62745;51.060;13.786;2024-01-06T02:42:54;12.23;;;4.72;;
74328;SDS011;62745;51.060;13.786;2024-01-06T02:45:19;10.90;;;5.03;;
74328;SDS011;62745;51.060;13.786;2024-01-06T02:47:44;10.17;;;4.20;;
74328;SDS011;62745;51.060;13.786;2024-01-06T02:50:10;12.03;;;5.20;;
74328;SDS011;62745;51.060;13.786;2024-01-06T02:52:35;10.70;;;5.22;;
74328;SDS011;62745;51.060;13.786;2024-01-06T02:55:00;10.10;;;4.50;;
74328;SDS011;62745;51.060;13.786;2024-01-06T02:57:27;14.35;;;4.63;;
74328;SDS011;62745;51.060;13.786;2024-01-06T02:59:52;11.73;;;4.35;;
74328;SDS011;62745;51.060;13.786;2024-01-06T03:02:18;12.30;;;4.85;;
74328;SDS011;62745;51.060;13.786;2024-01-06T03:04:43;11.03;;;4.37;;
74328;SDS011;62745;51.060;13.786;2024-01-06T03:07:08;13.63;;;5.30;;
74328;SDS011;62745;51.060;13.786;2024-01-06T03:09:34;9.95;;;4.63;;
74328;SDS011;62745;51.060;13.786;2024-01-06T03:11:59;12.02;;;5.40;;
74328;SDS011;62745;51.060;13.786;2024-01-06T03:14:24;9.93;;;4.70;;
74328;SDS011;62745;51.060;13.786;2024-01-06T03:16:50;11.40;;;5.17;;
74328;SDS011;62745;51.060;13.786;2024-01-06T03:19:15;10.77;;;5.07;;
74328;SDS011;62745;51.060;13.786;2024-01-06T03:21:40;17.00;;;4.67;;
74328;SDS011;62745;51.060;13.786;2024-01-06T03:24:06;14.23;;;5.73;;
74328;SDS011;62745;51.060;13.786;2024-01-06T03:26:32;13.00;;;5.65;;
74328;SDS011;62745;51.060;13.786;2024-01-06T03:28:58;12.47;;;4.90;;
74328;SDS011;62745;51.060;13.786;2024-01-06T03:31:24;11.13;;;4.78;;
74328;SDS011;62745;51.060;13.786;2024-01-06T03:33:49;12.37;;;5.07;;
74328;SDS011;62745;51.060;13.786;2024-01-06T03:36:14;11.33;;;4.47;;
74328;SDS011;62745;51.060;13.786;2024-01-06T03:38:41;11.07;;;5.15;;
74328;SDS011;62745;51.060;13.786;2024-01-06T03:41:07;11.77;;;5.50;;
74328;SDS011;62745;51.060;13.786;2024-01-06T03:43:32;12.88;;;5.47;;
74328;SDS011;62745;51.060;13.786;2024-01-06T03:45:57;11.27;;;5.05;;
74328;SDS011;62745;51.060;13.786;2024-01-06T03:48:25;10.60;;;4.68;;
74328;SDS011;62745;51.060;13.786;2024-01-06T03:50:50;12.15;;;5.35;;
74328;SDS011;62745;51.060;13.786;2024-01-06T03:53:15;13.52;;;5.75;;
74328;SDS011;62745;51.060;13.786;2024-01-06T03:55:41;15.10;;;5.47;;
74328;SDS011;62745;51.060;13.786;2024-01-06T03:58:06;9.52;;;4.32;;
74328;SDS011;62745;51.060;13.786;2024-01-06T04:00:31;14.57;;;5.37;;
74328;SDS011;62745;51.060;13.786;2024-01-06T04:02:57;10.82;;;5.35;;
74328;SDS011;62745;51.060;13.786;2024-01-06T04:05:22;9.63;;;4.70;;
74328;SDS011;62745;51.060;13.786;2024-01-06T04:07:47;12.20;;;5.83;;
74328;SDS011;62745;51.060;13.786;2024-01-06T04:10:12;14.97;;;5.90;;
74328;SDS011;62745;51.060;13.786;2024-01-06T04:12:38;15.07;;;5.90;;
74328;SDS011;62745;51.060;13.786;2024-01-06T04:15:03;10.57;;;5.10;;
74328;SDS011;62745;51.060;13.786;2024-01-06T04:17:29;13.98;;;5.93;;
74328;SDS011;62745;51.060;13.786;2024-01-06T04:19:55;14.18;;;5.90;;
74328;SDS011;62745;51.060;13.786;2024-01-06T04:22:20;10.70;;;5.47;;
74328;SDS011;62745;51.060;13.786;2024-01-06T04:24:45;12.07;;;5.53;;
74328;SDS011;62745;51.060;13.786;2024-01-06T04:27:10;13.43;;;5.00;;
74328;SDS011;62745;51.060;13.786;2024-01-06T04:29:36;14.67;;;5.03;;
74328;SDS011;62745;51.060;13.786;2024-01-06T04:32:01;14.10;;;5.17;;
74328;SDS011;62745;51.060;13.786;2024-01-06T04:34:27;14.73;;;6.53;;
74328;SDS011;62745;51.060;13.786;2024-01-06T04:36:52;13.07;;;5.40;;
74328;SDS011;62745;51.060;13.786;2024-01-06T04:39:18;12.50;;;6.03;;
74328;SDS011;62745;51.060;13.786;2024-01-06T04:41:43;15.10;;;5.97;;
74328;SDS011;62745;51.060;13.786;2024-01-06T04:44:08;14.73;;;5.82;;
74328;SDS011;62745;51.060;13.786;2024-01-06T04:46:33;15.23;;;5.20;;
74328;SDS011;62745;51.060;13.786;2024-01-06T04:48:59;14.03;;;5.77;;
74328;SDS011;62745;51.060;13.786;2024-01-06T04:51:24;15.27;;;6.60;;
74328;SDS011;62745;51.060;13.786;2024-01-06T04:53:49;14.88;;;5.97;;
74328;SDS011;62745;51.060;13.786;2024-01-06T04:56:15;14.03;;;5.73;;
74328;SDS011;62745;51.060;13.786;2024-01-06T04:58:40;12.90;;;6.07;;
74328;SDS011;62745;51.060;13.786;2024-01-06T05:01:06;13.95;;;5.32;;
74328;SDS011;62745;51.060;13.786;2024-01-06T05:03:31;14.45;;;5.88;;
74328;SDS011;62745;51.060;13.786;2024-01-06T05:05:56;13.60;;;6.23;;
74328;SDS011;62745;51.060;13.786;2024-01-06T05:08:22;14.17;;;6.80;;
74328;SDS011;62745;51.060;13.786;2024-01-06T05:10:52;12.93;;;6.10;;
74328;SDS011;62745;51.060;13.786;2024-01-06T05:13:18;15.43;;;6.50;;
74328;SDS011;62745;51.060;13.786;2024-01-06T05:15:43;10.82;;;5.65;;
74328;SDS011;62745;51.060;13.786;2024-01-06T05:18:08;15.53;;;6.13;;
74328;SDS011;62745;51.060;13.786;2024-01-06T05:20:34;11.93;;;5.53;;
74328;SDS011;62745;51.060;13.786;2024-01-06T05:22:59;12.73;;;6.23;;
74328;SDS011;62745;51.060;13.786;2024-01-06T05:25:25;12.52;;;6.20;;
74328;SDS011;62745;51.060;13.786;2024-01-06T05:27:50;14.15;;;5.55;;
74328;SDS011;62745;51.060;13.786;2024-01-06T05:30:15;21.63;;;6.10;;
74328;SDS011;62745;51.060;13.786;2024-01-06T05:32:40;13.73;;;6.20;;
74328;SDS011;62745;51.060;13.786;2024-01-06T05:35:06;13.63;;;5.73;;
74328;SDS011;62745;51.060;13.786;2024-01-06T05:37:32;14.38;;;6.00;;
74328;SDS011;62745;51.060;13.786;2024-01-06T05:39:57;13.38;;;6.00;;
74328;SDS011;62745;51.060;13.786;2024-01-06T05:42:26;10.32;;;5.68;;
74328;SDS011;62745;51.060;13.786;2024-01-06T05:44:51;15.18;;;5.60;;
74328;SDS011;62745;51.060;13.786;2024-01-06T05:47:17;12.32;;;5.80;;
74328;SDS011;62745;51.060;13.786;2024-01-06T05:49:42;11.67;;;5.47;;
74328;SDS011;62745;51.060;13.786;2024-01-06T05:52:09;13.43;;;5.60;;
74328;SDS011;62745;51.060;13.786;2024-01-06T05:54:34;12.65;;;5.30;;
74328;SDS011;62745;51.060;13.786;2024-01-06T05:57:00;16.20;;;6.43;;
74328;SDS011;62745;51.060;13.786;2024-01-06T05:59:25;12.68;;;6.90;;
74328;SDS011;62745;51.060;13.786;2024-01-06T06:01:50;12.43;;;5.93;;
74328;SDS011;62745;51.060;13.786;2024-01-06T06:04:17;13.32;;;5.78;;
74328;SDS011;62745;51.060;13.786;2024-01-06T06:06:43;17.85;;;7.47;;
74328;SDS011;62745;51.060;13.786;2024-01-06T06:09:09;12.90;;;5.72;;
74328;SDS011;62745;51.060;13.786;2024-01-06T06:11:35;18.17;;;6.75;;
74328;SDS011;62745;51.060;13.786;2024-01-06T06:14:01;15.65;;;6.80;;
74328;SDS011;62745;51.060;13.786;2024-01-06T06:16:28;12.65;;;5.30;;
74328;SDS011;62745;51.060;13.786;2024-01-06T06:18:53;15.25;;;6.03;;
74328;SDS011;62745;51.060;13.786;2024-01-06T06:21:19;12.50;;;5.95;;
74328;SDS011;62745;51.060;13.786;2024-01-06T06:23:45;12.77;;;6.68;;
74328;SDS011;62745;51.060;13.786;2024-01-06T06:26:10;13.70;;;6.33;;
74328;SDS011;62745;51.060;13.786;2024-01-06T06:28:36;12.93;;;5.88;;
74328;SDS011;62745;51.060;13.786;2024-01-06T06:31:02;15.00;;;6.40;;
74328;SDS011;62745;51.060;13.786;2024-01-06T06:33:28;12.43;;;6.68;;
74328;SDS011;62745;51.060;13.786;2024-01-06T06:35:53;20.40;;;7.00;;
74328;SDS011;62745;51.060;13.786;2024-01-06T06:38:19;15.48;;;7.75;;
74328;SDS011;62745;51.060;13.786;2024-01-06T06:40:45;15.20;;;7.40;;
74328;SDS011;62745;51.060;13.786;2024-01-06T06:43:12;18.13;;;8.23;;
74328;SDS011;62745;51.060;13.786;2024-01-06T06:45:38;19.15;;;7.72;;
74328;SDS011;62745;51.060;13.786;2024-01-06T06:48:03;22.73;;;8.27;;
74328;SDS011;62745;51.060;13.786;2024-01-06T06:50:29;19.85;;;8.63;;
74328;SDS011;62745;51.060;13.786;2024-01-06T06:52:54;18.33;;;8.93;;
74328;SDS011;62745;51.060;13.786;2024-01-06T06:55:19;19.23;;;8.67;;
74328;SDS011;62745;51.060;13.786;2024-01-06T06:57:45;20.07;;;9.30;;
74328;SDS011;62745;51.060;13.786;2024-01-06T07:00:10;20.35;;;9.30;;
74328;SDS011;62745;51.060;13.786;2024-01-06T07:02:39;22.75;;;9.32;;
74328;SDS011;62745;51.060;13.786;2024-01-06T07:05:04;20.27;;;9.00;;
74328;SDS011;62745;51.060;13.786;2024-01-06T07:07:31;18.20;;;8.50;;
74328;SDS011;62745;51.060;13.786;2024-01-06T07:09:58;15.93;;;7.35;;
74328;SDS011;62745;51.060;13.786;2024-01-06T07:12:25;18.05;;;7.70;;
74328;SDS011;62745;51.060;13.786;2024-01-06T07:14:50;15.07;;;7.17;;
74328;SDS011;62745;51.060;13.786;2024-01-06T07:17:15;16.92;;;8.18;;
74328;SDS011;62745;51.060;13.786;2024-01-06T07:19:41;19.17;;;8.03;;
74328;SDS011;62745;51.060;13.786;2024-01-06T07:22:06;17.37;;;8.30;;
74328;SDS011;62745;51.060;13.786;2024-01-06T07:24:31;21.50;;;9.13;;
74328;SDS011;62745;51.060;13.786;2024-01-06T07:26:56;23.50;;;9.47;;
74328;SDS011;62745;51.060;13.786;2024-01-06T07:29:22;22.00;;;8.63;;
74328;SDS011;62745;51.060;13.786;2024-01-06T07:31:47;20.70;;;9.32;;
74328;SDS011;62745;51.060;13.786;2024-01-06T07:34:12;22.50;;;9.70;;
74328;SDS011;62745;51.060;13.786;2024-01-06T07:36:38;17.90;;;9.57;;
74328;SDS011;62745;51.060;13.786;2024-01-06T07:39:04;22.30;;;10.07;;
74328;SDS011;62745;51.060;13.786;2024-01-06T07:41:30;20.73;;;8.77;;
74328;SDS011;62745;51.060;13.786;2024-01-06T07:43:57;16.95;;;8.15;;
74328;SDS011;62745;51.060;13.786;2024-01-06T07:46:25;15.13;;;7.70;;
74328;SDS011;62745;51.060;13.786;2024-01-06T07:48:50;17.95;;;8.13;;
74328;SDS011;62745;51.060;13.786;2024-01-06T07:51:15;17.57;;;8.27;;
74328;SDS011;62745;51.060;13.786;2024-01-06T07:53:41;17.63;;;7.27;;
74328;SDS011;62745;51.060;13.786;2024-01-06T07:56:07;18.92;;;9.07;;
74328;SDS011;62745;51.060;13.786;2024-01-06T07:58:32;18.80;;;9.02;;
74328;SDS011;62745;51.060;13.786;2024-01-06T08:00:58;21.63;;;9.80;;
74328;SDS011;62745;51.060;13.786;2024-01-06T08:03:23;21.50;;;9.93;;
74328;SDS011;62745;51.060;13.786;2024-01-06T08:05:48;23.05;;;10.05;;
74328;SDS011;62745;51.060;13.786;2024-01-06T08:08:14;26.70;;;11.15;;
74328;SDS011;62745;51.060;13.786;2024-01-06T08:10:41;21.27;;;10.35;;
74328;SDS011;62745;51.060;13.786;2024-01-06T08:13:07;29.23;;;12.55;;
74328;SDS011;62745;51.060;13.786;2024-01-06T08:15:32;25.48;;;11.18;;
74328;SDS011;62745;51.060;13.786;2024-01-06T08:17:58;26.17;;;11.38;;
74328;SDS011;62745;51.060;13.786;2024-01-06T08:20:23;30.50;;;13.45;;
74328;SDS011;62745;51.060;13.786;2024-01-06T08:22:51;26.03;;;10.87;;
74328;SDS011;62745;51.060;13.786;2024-01-06T08:25:16;27.33;;;10.45;;
74328;SDS011;62745;51.060;13.786;2024-01-06T08:27:42;25.67;;;11.50;;
74328;SDS011;62745;51.060;13.786;2024-01-06T08:30:08;23.70;;;10.60;;
74328;SDS011;62745;51.060;13.786;2024-01-06T08:32:34;24.05;;;11.32;;
74328;SDS011;62745;51.060;13.786;2024-01-06T08:35:00;24.17;;;11.75;;
74328;SDS011;62745;51.060;13.786;2024-01-06T08:37:25;29.77;;;12.07;;
74328;SDS011;62745;51.060;13.786;2024-01-06T08:39:50;27.95;;;11.80;;
74328;SDS011;62745;51.060;13.786;2024-01-06T08:42:15;27.87;;;11.23;;
74328;SDS011;62745;51.060;13.786;2024-01-06T08:44:41;28.08;;;12.52;;
74328;SDS011;62745;51.060;13.786;2024-01-06T08:47:08;29.05;;;12.95;;
74328;SDS011;62745;51.060;13.786;2024-01-06T08:49:33;28.38;;;11.52;;
74328;SDS011;62745;51.060;13.786;2024-01-06T08:51:59;23.58;;;10.02;;
74328;SDS011;62745;51.060;13.786;2024-01-06T08:54:24;31.77;;;12.15;;
74328;SDS011;62745;51.060;13.786;2024-01-06T08:56:50;27.05;;;12.65;;
74328;SDS011;62745;51.060;13.786;2024-01-06T08:59:15;27.40;;;12.13;;
74328;SDS011;62745;51.060;13.786;2024-01-06T09:01:40;28.27;;;11.30;;
74328;SDS011;62745;51.060;13.786;2024-01-06T09:04:06;28.80;;;11.73;;
74328;SDS011;62745;51.060;13.786;2024-01-06T09:06:31;27.83;;;11.80;;
74328;SDS011;62745;51.060;13.786;2024-01-06T09:08:57;29.20;;;12.32;;
74328;SDS011;62745;51.060;13.786;2024-01-06T09:11:22;34.10;;;12.33;;
74328;SDS011;62745;51.060;13.786;2024-01-06T09:13:47;29.37;;;11.23;;
74328;SDS011;62745;51.060;13.786;2024-01-06T09:16:13;29.50;;;12.25;;
74328;SDS011;62745;51.060;13.786;2024-01-06T09:18:38;31.05;;;12.68;;
74328;SDS011;62745;51.060;13.786;2024-01-06T09:21:04;29.85;;;12.02;;
74328;SDS011;62745;51.060;13.786;2024-01-06T09:23:30;27.63;;;11.23;;
74328;SDS011;62745;51.060;13.786;2024-01-06T09:25:56;23.40;;;10.10;;
74328;SDS011;62745;51.060;13.786;2024-01-06T09:28:23;25.50;;;11.57;;
74328;SDS011;62745;51.060;13.786;2024-01-06T09:30:48;27.60;;;12.50;;
74328;SDS011;62745;51.060;13.786;2024-01-06T09:33:14;26.05;;;11.10;;
74328;SDS011;62745;51.060;13.786;2024-01-06T09:35:42;26.85;;;10.98;;
74328;SDS011;62745;51.060;13.786;2024-01-06T09:38:08;27.63;;;13.07;;
74328;SDS011;62745;51.060;13.786;2024-01-06T09:40:34;23.83;;;12.15;;
74328;SDS011;62745;51.060;13.786;2024-01-06T09:43:00;25.63;;;10.88;;
74328;SDS011;62745;51.060;13.786;2024-01-06T09:45:26;23.73;;;11.68;;
74328;SDS011;62745;51.060;13.786;2024-01-06T09:47:53;30.42;;;13.43;;
74328;SDS011;62745;51.060;13.786;2024-01-06T09:50:20;24.77;;;11.50;;
74328;SDS011;62745;51.060;13.786;2024-01-06T09:52:48;25.73;;;11.15;;
74328;SDS011;62745;51.060;13.786;2024-01-06T09:55:28;27.67;;;12.07;;
74328;SDS011;62745;51.060;13.786;2024-01-06T09:57:54;20.33;;;11.38;;
74328;SDS011;62745;51.060;13.786;2024-01-06T10:00:19;24.97;;;11.50;;
74328;SDS011;62745;51.060;13.786;2024-01-06T10:02:46;26.23;;;11.65;;
74328;SDS011;62745;51.060;13.786;2024-01-06T10:05:13;26.25;;;12.38;;
74328;SDS011;62745;51.060;13.786;2024-01-06T10:07:41;24.20;;;11.43;;
74328;SDS011;62745;51.060;13.786;2024-01-06T10:10:08;26.58;;;11.90;;
74328;SDS011;62745;51.060;13.786;2024-01-06T10:12:36;25.60;;;12.15;;
74328;SDS011;62745;51.060;13.786;2024-01-06T10:15:03;24.50;;;11.52;;
74328;SDS011;62745;51.060;13.786;2024-01-06T10:17:29;24.60;;;11.95;;
74328;SDS011;62745;51.060;13.786;2024-01-06T10:19:54;26.27;;;11.20;;
74328;SDS011;62745;51.060;13.786;2024-01-06T10:22:19;24.33;;;12.53;;
74328;SDS011;62745;51.060;13.786;2024-01-06T10:24:45;26.92;;;11.45;;
74328;SDS011;62745;51.060;13.786;2024-01-06T10:27:11;25.23;;;11.38;;
74328;SDS011;62745;51.060;13.786;2024-01-06T10:29:36;27.15;;;11.88;;
74328;SDS011;62745;51.060;13.786;2024-01-06T10:32:02;25.00;;;12.00;;
74328;SDS011;62745;51.060;13.786;2024-01-06T10:34:28;25.48;;;11.38;;
74328;SDS011;62745;51.060;13.786;2024-01-06T10:36:54;21.48;;;11.20;;
74328;SDS011;62745;51.060;13.786;2024-01-06T10:39:20;27.90;;;11.70;;
74328;SDS011;62745;51.060;13.786;2024-01-06T10:41:46;23.15;;;10.88;;
74328;SDS011;62745;51.060;13.786;2024-01-06T10:44:14;23.30;;;11.27;;
74328;SDS011;62745;51.060;13.786;2024-01-06T10:46:44;26.02;;;10.82;;
74328;SDS011;62745;51.060;13.786;2024-01-06T10:49:09;23.90;;;11.13;;
74328;SDS011;62745;51.060;13.786;2024-01-06T10:51:37;28.02;;;12.32;;
74328;SDS011;62745;51.060;13.786;2024-01-06T10:54:02;21.88;;;11.57;;
74328;SDS011;62745;51.060;13.786;2024-01-06T10:56:29;24.23;;;11.82;;
74328;SDS011;62745;51.060;13.786;2024-01-06T10:58:55;21.40;;;10.88;;
74328;SDS011;62745;51.060;13.786;2024-01-06T11:01:22;22.02;;;10.57;;
74328;SDS011;62745;51.060;13.786;2024-01-06T11:03:49;23.08;;;10.80;;
74328;SDS011;62745;51.060;13.786;2024-01-06T11:06:16;23.80;;;10.45;;
74328;SDS011;62745;51.060;13.786;2024-01-06T11:09:29;22.10;;;10.80;;
74328;SDS011;62745;51.060;13.786;2024-01-06T11:14:26;20.87;;;11.07;;
74328;SDS011;62745;51.060;13.786;2024-01-06T11:16:59;22.33;;;10.43;;
74328;SDS011;62745;51.060;13.786;2024-01-06T11:25:05;22.35;;;10.27;;
74328;SDS011;62745;51.060;13.786;2024-01-06T11:27:32;23.83;;;11.57;;
74328;SDS011;62745;51.060;13.786;2024-01-06T11:29:58;24.85;;;11.73;;
74328;SDS011;62745;51.060;13.786;2024-01-06T11:32:31;21.65;;;10.77;;
74328;SDS011;62745;51.060;13.786;2024-01-06T11:35:08;21.20;;;10.52;;
74328;SDS011;62745;51.060;13.786;2024-01-06T11:42:44;23.67;;;10.98;;
74328;SDS011;62745;51.060;13.786;2024-01-06T11:45:10;23.33;;;11.88;;
74328;SDS011;62745;51.060;13.786;2024-01-06T11:47:36;21.10;;;9.97;;
74328;SDS011;62745;51.060;13.786;2024-01-06T11:50:02;20.48;;;10.30;;
74328;SDS011;62745;51.060;13.786;2024-01-06T11:52:30;21.45;;;10.82;;
74328;SDS011;62745;51.060;13.786;2024-01-06T11:54:56;18.08;;;8.73;;
74328;SDS011;62745;51.060;13.786;2024-01-06T11:57:21;19.08;;;9.05;;
74328;SDS011;62745;51.060;13.786;2024-01-06T11:59:47;21.30;;;9.80;;
74328;SDS011;62745;51.060;13.786;2024-01-06T12:02:13;20.08;;;8.73;;
74328;SDS011;62745;51.060;13.786;2024-01-06T12:04:39;22.35;;;9.80;;
74328;SDS011;62745;51.060;13.786;2024-01-06T12:07:08;19.55;;;10.23;;
74328;SDS011;62745;51.060;13.786;2024-01-06T12:09:34;18.65;;;9.77;;
74328;SDS011;62745;51.060;13.786;2024-01-06T12:12:01;24.13;;;11.70;;
74328;SDS011;62745;51.060;13.786;2024-01-06T12:14:27;21.83;;;11.23;;
74328;SDS011;62745;51.060;13.786;2024-01-06T12:16:52;19.07;;;9.80;;
74328;SDS011;62745;51.060;13.786;2024-01-06T12:19:18;22.90;;;10.40;;
74328;SDS011;62745;51.060;13.786;2024-01-06T12:21:44;26.38;;;10.45;;
74328;SDS011;62745;51.060;13.786;2024-01-06T12:24:19;24.92;;;10.25;;
74328;SDS011;62745;51.060;13.786;2024-01-06T12:26:45;24.25;;;11.55;;
74328;SDS011;62745;51.060;13.786;2024-01-06T12:29:14;21.25;;;10.93;;
74328;SDS011;62745;51.060;13.786;2024-01-06T12:31:40;24.17;;;11.23;;
74328;SDS011;62745;51.060;13.786;2024-01-06T12:34:06;21.73;;;10.82;;
74328;SDS011;62745;51.060;13.786;2024-01-06T12:36:37;22.52;;;10.88;;
74328;SDS011;62745;51.060;13.786;2024-01-06T12:39:04;26.60;;;12.07;;
74328;SDS011;62745;51.060;13.786;2024-01-06T12:41:30;24.63;;;10.85;;
74328;SDS011;62745;51.060;13.786;2024-01-06T12:43:58;22.38;;;10.70;;
74328;SDS011;62745;51.060;13.786;2024-01-06T12:46:24;23.13;;;11.23;;
74328;SDS011;62745;51.060;13.786;2024-01-06T12:48:49;23.43;;;12.00;;
74328;SDS011;62745;51.060;13.786;2024-01-06T12:51:14;24.88;;;10.32;;
74328;SDS011;62745;51.060;13.786;2024-01-06T12:53:40;23.20;;;11.03;;
74328;SDS011;62745;51.060;13.786;2024-01-06T12:56:05;21.13;;;11.07;;
74328;SDS011;62745;51.060;13.786;2024-01-06T12:58:32;21.40;;;10.25;;
74328;SDS011;62745;51.060;13.786;2024-01-06T13:00:58;18.75;;;9.43;;
74328;SDS011;62745;51.060;13.786;2024-01-06T13:03:23;18.37;;;9.77;;
74328;SDS011;62745;51.060;13.786;2024-01-06T13:05:48;17.63;;;9.23;;
74328;SDS011;62745;51.060;13.786;2024-01-06T13:08:14;17.88;;;9.55;;
74328;SDS011;62745;51.060;13.786;2024-01-06T13:10:40;16.60;;;8.32;;
74328;SDS011;62745;51.060;13.786;2024-01-06T13:13:05;17.50;;;9.50;;
74328;SDS011;62745;51.060;13.786;2024-01-06T13:15:30;19.98;;;8.70;;
74328;SDS011;62745;51.060;13.786;2024-01-06T13:17:56;16.77;;;9.23;;
74328;SDS011;62745;51.060;13.786;2024-01-06T13:20:22;15.52;;;8.80;;
74328;SDS011;62745;51.060;13.786;2024-01-06T13:22:47;17.57;;;8.40;;
74328;SDS011;62745;51.060;13.786;2024-01-06T13:25:12;15.20;;;8.33;;
74328;SDS011;62745;51.060;13.786;2024-01-06T13:27:38;15.88;;;6.85;;
74328;SDS011;62745;51.060;13.786;2024-01-06T13:30:03;16.33;;;8.13;;
74328;SDS011;62745;51.060;13.786;2024-01-06T13:32:29;18.45;;;8.77;;
74328;SDS011;62745;51.060;13.786;2024-01-06T13:34:55;17.20;;;8.80;;
74328;SDS011;62745;51.060;13.786;2024-01-06T13:37:26;18.23;;;9.02;;
74328;SDS011;62745;51.060;13.786;2024-01-06T13:39:52;18.90;;;10.02;;
74328;SDS011;62745;51.060;13.786;2024-01-06T13:42:18;19.17;;;8.95;;
74328;SDS011;62745;51.060;13.786;2024-01-06T13:44:46;18.77;;;8.93;;
74328;SDS011;62745;51.060;13.786;2024-01-06T13:47:13;19.60;;;9.07;;
74328;SDS011;62745;51.060;13.786;2024-01-06T13:49:39;17.73;;;8.88;;
74328;SDS011;62745;51.060;13.786;2024-01-06T13:52:04;19.10;;;8.45;;
74328;SDS011;62745;51.060;13.786;2024-01-06T13:54:30;21.45;;;9.80;;
74328;SDS011;62745;51.060;13.786;2024-01-06T13:56:55;20.23;;;10.52;;
74328;SDS011;62745;51.060;13.786;2024-01-06T13:59:20;21.30;;;10.43;;
74328;SDS011;62745;51.060;13.786;2024-01-06T14:01:46;20.83;;;10.27;;
74328;SDS011;62745;51.060;13.786;2024-01-06T14:04:11;24.58;;;10.88;;
74328;SDS011;62745;51.060;13.786;2024-01-06T14:06:40;24.42;;;10.68;;
74328;SDS011;62745;51.060;13.786;2024-01-06T14:09:06;27.52;;;10.70;;
74328;SDS011;62745;51.060;13.786;2024-01-06T14:11:31;27.05;;;12.05;;
74328;SDS011;62745;51.060;13.786;2024-01-06T14:13:59;26.40;;;10.37;;
74328;SDS011;62745;51.060;13.786;2024-01-06T14:16:25;24.50;;;12.07;;
74328;SDS011;62745;51.060;13.786;2024-01-06T14:18:51;29.85;;;11.90;;
74328;SDS011;62745;51.060;13.786;2024-01-06T14:21:16;27.75;;;10.80;;
74328;SDS011;62745;51.060;13.786;2024-01-06T14:23:44;26.90;;;11.13;;